Time;durP1;ratioP1;P1;durP2;ratioP2;P2;SDS_P1;SDS_P2;PMS_P1;PMS_P2;Temp;Humidity;BMP_temperature;BMP_pressure;BME280_temperature;BME280_humidity;BME280_pressure;Samples;Min_cycle;Max_cycle;Signal;HPM_P1;HPM_P2
2023/04/08 00:02:24;;;;;;;6.07;3.50;;;10.40;99.90;;;;;;4991553;28;20202;-66
2023/04/08 00:04:51;;;;;;;3.63;3.17;;;10.40;99.90;;;;;;4991716;28;20742;-65
2023/04/08 00:07:20;;;;;;;4.83;3.07;;;10.30;99.90;;;;;;4989766;28;20199;-65
2023/04/08 00:09:50;;;;;;;2.80;2.60;;;10.40;99.90;;;;;;4989946;28;20190;-65
2023/04/08 00:12:18;;;;;;;3.80;3.00;;;10.30;99.90;;;;;;4989429;28;20707;-65
2023/04/08 00:14:45;;;;;;;5.53;3.50;;;10.30;99.90;;;;;;4989070;28;20272;-65
2023/04/08 00:17:12;;;;;;;5.73;3.20;;;10.30;99.90;;;;;;4990584;28;20195;-66
2023/04/08 00:19:40;;;;;;;3.47;3.17;;;10.30;99.90;;;;;;4991155;28;20203;-66
2023/04/08 00:22:07;;;;;;;3.53;2.90;;;10.30;99.90;;;;;;4991345;28;20219;-66
2023/04/08 00:24:35;;;;;;;6.77;3.60;;;10.30;99.90;;;;;;4987813;28;20200;-65
2023/04/08 00:27:02;;;;;;;10.30;5.00;;;10.40;99.90;;;;;;4990250;28;20295;-65
2023/04/08 00:29:34;;;;;;;6.97;4.67;;;10.40;99.90;;;;;;4991457;28;20256;-65
2023/04/08 00:32:02;;;;;;;6.03;4.17;;;10.40;99.90;;;;;;4988868;28;20654;-65
2023/04/08 00:34:29;;;;;;;9.83;5.27;;;10.50;99.90;;;;;;4991350;28;20205;-65
2023/04/08 00:37:00;;;;;;;8.97;5.70;;;10.50;99.90;;;;;;4989699;28;20279;-65
2023/04/08 00:39:27;;;;;;;8.10;4.60;;;10.50;99.90;;;;;;4988277;28;20210;-66
2023/04/08 00:41:55;;;;;;;5.57;4.33;;;10.50;99.90;;;;;;4990522;28;20254;-66
2023/04/08 00:44:22;;;;;;;6.37;4.47;;;10.50;99.90;;;;;;4986731;28;20246;-65
2023/04/08 00:46:50;;;;;;;6.73;4.17;;;10.50;99.90;;;;;;4990158;28;20595;-65
2023/04/08 00:49:17;;;;;;;6.37;3.73;;;10.50;99.90;;;;;;4991880;28;20202;-66
2023/04/08 00:51:44;;;;;;;4.37;3.53;;;10.50;99.90;;;;;;4988464;28;20199;-65
2023/04/08 00:54:11;;;;;;;5.40;2.80;;;10.50;99.90;;;;;;4988985;28;20267;-66
2023/04/08 00:56:39;;;;;;;4.63;3.23;;;10.50;99.90;;;;;;4991131;28;20263;-65
2023/04/08 00:59:06;;;;;;;3.67;2.53;;;10.50;99.90;;;;;;5002890;28;20205;-65
2023/04/08 01:01:41;;;;;;;3.77;3.30;;;10.40;99.90;;;;;;4990943;28;20751;-65
2023/04/08 01:04:20;;;;;;;5.13;3.30;;;10.40;99.90;;;;;;4988856;28;20237;-65
2023/04/08 01:06:57;;;;;;;3.57;2.73;;;10.40;99.90;;;;;;4983992;28;20203;-65
2023/04/08 01:09:28;;;;;;;7.87;4.87;;;10.40;99.90;;;;;;4986839;28;20278;-65
2023/04/08 01:11:57;;;;;;;10.20;4.33;;;10.40;99.90;;;;;;4990171;28;20198;-66
2023/04/08 01:14:28;;;;;;;13.93;7.27;;;10.40;99.90;;;;;;4987510;28;20215;-66
2023/04/08 01:16:57;;;;;;;11.67;6.33;;;10.30;99.90;;;;;;4990780;28;20215;-64
2023/04/08 01:19:29;;;;;;;13.77;7.93;;;10.30;99.90;;;;;;4991082;28;20201;-65
2023/04/08 01:22:05;;;;;;;10.43;6.50;;;10.30;99.90;;;;;;5002516;28;20215;-65
2023/04/08 01:24:39;;;;;;;9.20;5.87;;;10.30;99.90;;;;;;4986449;28;20204;-66
2023/04/08 01:27:10;;;;;;;14.93;7.60;;;10.30;99.90;;;;;;4982601;28;20279;-66
2023/04/08 01:29:38;;;;;;;18.60;9.23;;;10.30;99.90;;;;;;4987752;28;20201;-65
2023/04/08 01:32:08;;;;;;;14.37;7.73;;;10.30;99.90;;;;;;4989390;28;20202;-66
2023/04/08 01:34:38;;;;;;;13.70;6.77;;;10.30;99.90;;;;;;4985877;28;20520;-66
2023/04/08 01:37:07;;;;;;;9.70;5.87;;;10.30;99.90;;;;;;5021321;28;20310;-65
2023/04/08 01:39:35;;;;;;;9.13;5.63;;;10.30;99.90;;;;;;4990178;28;20298;-65
2023/04/08 01:42:03;;;;;;;11.40;5.87;;;10.30;99.90;;;;;;4987195;28;20607;-66
2023/04/08 01:44:32;;;;;;;10.80;6.60;;;10.20;99.90;;;;;;4989912;28;20262;-66
2023/04/08 01:47:00;;;;;;;19.03;8.43;;;10.20;99.90;;;;;;4987050;28;20187;-65
2023/04/08 01:49:27;;;;;;;14.73;7.10;;;10.20;99.90;;;;;;4987262;28;20651;-65
2023/04/08 01:51:56;;;;;;;10.67;7.33;;;10.20;99.90;;;;;;4989329;28;20255;-66
2023/04/08 01:54:23;;;;;;;16.83;8.10;;;10.30;99.90;;;;;;4989476;28;20225;-65
2023/04/08 01:56:55;;;;;;;11.63;6.97;;;10.20;99.90;;;;;;4985454;28;20569;-65
2023/04/08 01:59:24;;;;;;;11.10;6.63;;;10.20;99.90;;;;;;5005047;28;20300;-65
2023/04/08 02:01:53;;;;;;;12.73;6.47;;;10.20;99.90;;;;;;4988230;28;20208;-65
2023/04/08 02:04:23;;;;;;;11.97;7.10;;;10.20;99.90;;;;;;4987310;28;20247;-65
2023/04/08 02:06:50;;;;;;;14.07;7.30;;;10.20;99.90;;;;;;4989943;28;20273;-67
2023/04/08 02:09:20;;;;;;;12.60;6.90;;;10.20;99.90;;;;;;5004549;28;20214;-66
2023/04/08 02:11:48;;;;;;;7.67;5.77;;;10.20;99.90;;;;;;4987134;28;20287;-66
2023/04/08 02:14:15;;;;;;;9.77;5.77;;;10.10;99.90;;;;;;4989832;28;20596;-66
2023/04/08 02:16:50;;;;;;;12.37;6.10;;;10.10;99.90;;;;;;5005779;28;20207;-65
2023/04/08 02:19:25;;;;;;;11.60;5.37;;;10.10;99.90;;;;;;4992903;28;20681;-66
2023/04/08 02:21:58;;;;;;;13.17;6.70;;;10.10;99.90;;;;;;4987868;28;20282;-65
2023/04/08 02:24:27;;;;;;;9.57;5.83;;;10.10;99.90;;;;;;4989784;28;20183;-65
2023/04/08 02:26:57;;;;;;;13.30;6.40;;;10.10;99.90;;;;;;4991151;28;20524;-65
2023/04/08 02:29:26;;;;;;;7.97;4.67;;;10.10;99.90;;;;;;4988484;28;20279;-66
2023/04/08 02:31:55;;;;;;;7.83;4.87;;;10.10;99.90;;;;;;5005059;28;20199;-66
2023/04/08 02:34:25;;;;;;;9.60;5.70;;;10.00;99.90;;;;;;4994659;28;20208;-66
2023/04/08 02:36:52;;;;;;;5.37;4.13;;;10.00;99.90;;;;;;4991458;28;20238;-66
2023/04/08 02:39:19;;;;;;;6.10;3.70;;;10.00;99.90;;;;;;4989548;28;20298;-65
2023/04/08 02:41:49;;;;;;;9.80;5.80;;;10.00;99.90;;;;;;4991752;28;20211;-65
2023/04/08 02:44:16;;;;;;;7.77;4.40;;;10.00;99.90;;;;;;4992146;28;20624;-66
2023/04/08 02:46:43;;;;;;;9.17;4.60;;;10.00;99.90;;;;;;4989297;28;20208;-65
2023/04/08 02:49:10;;;;;;;9.33;4.60;;;10.00;99.90;;;;;;4992654;28;20221;-65
2023/04/08 02:51:41;;;;;;;6.63;3.93;;;10.00;99.90;;;;;;4992372;28;20214;-65
2023/04/08 02:54:08;;;;;;;6.33;4.20;;;10.00;99.90;;;;;;4982636;28;20231;-66
2023/04/08 02:56:35;;;;;;;8.17;4.73;;;10.00;99.90;;;;;;4991574;28;20207;-66
2023/04/08 02:59:03;;;;;;;6.67;4.50;;;10.00;99.90;;;;;;4991869;28;20278;-65
2023/04/08 03:01:31;;;;;;;9.27;5.20;;;10.00;99.90;;;;;;4988456;28;20211;-65
2023/04/08 03:03:58;;;;;;;9.77;5.27;;;10.00;99.90;;;;;;4993923;28;20430;-65
2023/04/08 03:06:25;;;;;;;11.00;5.13;;;10.10;99.90;;;;;;4992946;28;20198;-65
2023/04/08 03:08:54;;;;;;;14.00;6.57;;;10.00;99.90;;;;;;4990015;28;20189;-65
2023/04/08 03:11:21;;;;;;;10.97;6.37;;;10.10;99.90;;;;;;4992191;28;20298;-65
2023/04/08 03:13:48;;;;;;;11.43;6.20;;;10.00;99.90;;;;;;4990807;28;20221;-65
2023/04/08 03:16:15;;;;;;;11.27;6.27;;;10.00;99.90;;;;;;4989981;28;20250;-65
2023/04/08 03:18:42;;;;;;;11.33;5.57;;;10.00;99.90;;;;;;4986321;28;20286;-65
2023/04/08 03:21:12;;;;;;;13.57;7.00;;;10.00;99.90;;;;;;4992987;28;20208;-65
2023/04/08 03:23:39;;;;;;;9.27;6.20;;;10.00;99.90;;;;;;5002703;28;20564;-65
2023/04/08 03:26:07;;;;;;;12.10;6.17;;;10.00;99.90;;;;;;4990305;28;20199;-65
2023/04/08 03:28:34;;;;;;;11.43;6.10;;;9.90;99.90;;;;;;4988951;28;20278;-66
2023/04/08 03:31:04;;;;;;;15.87;7.73;;;9.90;99.90;;;;;;5003325;28;20554;-65
2023/04/08 03:33:33;;;;;;;16.17;7.10;;;9.90;99.90;;;;;;4993472;28;20333;-67
2023/04/08 03:36:00;;;;;;;10.30;6.63;;;10.00;99.90;;;;;;4990875;28;20687;-66
2023/04/08 03:38:27;;;;;;;8.93;6.10;;;10.00;99.90;;;;;;4990565;28;20199;-66
2023/04/08 03:40:56;;;;;;;10.93;5.73;;;10.00;99.90;;;;;;4990970;28;20312;-65
2023/04/08 03:43:25;;;;;;;8.43;5.37;;;10.00;99.90;;;;;;4990323;28;22048;-65
2023/04/08 03:45:52;;;;;;;11.77;6.20;;;10.00;99.90;;;;;;4988845;28;20218;-66
2023/04/08 03:48:19;;;;;;;8.33;4.93;;;10.00;99.90;;;;;;4993125;28;20656;-66
2023/04/08 03:50:46;;;;;;;11.23;5.40;;;10.00;99.90;;;;;;4991004;28;20232;-66
2023/04/08 03:53:13;;;;;;;11.97;6.60;;;10.00;99.90;;;;;;4989922;28;20209;-66
2023/04/08 03:55:40;;;;;;;7.40;4.93;;;10.00;99.90;;;;;;4990496;28;20683;-66
2023/04/08 03:58:07;;;;;;;8.33;5.20;;;10.00;99.90;;;;;;4990360;28;20656;-66
2023/04/08 04:00:37;;;;;;;10.57;6.43;;;10.00;99.90;;;;;;4990740;28;20263;-66
2023/04/08 04:03:04;;;;;;;10.03;5.87;;;10.00;99.90;;;;;;4991531;28;20326;-66
2023/04/08 04:05:31;;;;;;;11.27;6.60;;;10.00;99.90;;;;;;4989078;28;20255;-65
2023/04/08 04:07:58;;;;;;;11.37;6.47;;;10.50;99.90;;;;;;4990984;28;20211;-66
2023/04/08 04:10:25;;;;;;;9.17;5.43;;;10.70;99.90;;;;;;4990513;28;20295;-66
2023/04/08 04:12:52;;;;;;;7.57;5.27;;;10.00;99.90;;;;;;4989615;28;20189;-66
2023/04/08 04:15:19;;;;;;;8.33;5.40;;;10.00;99.90;;;;;;4990357;28;20699;-65
2023/04/08 04:17:55;;;;;;;11.23;6.20;;;10.00;99.90;;;;;;4991538;28;20297;-66
2023/04/08 04:20:22;;;;;;;9.70;5.57;;;10.00;99.90;;;;;;4989486;28;20252;-65
2023/04/08 04:22:49;;;;;;;9.50;5.60;;;10.00;99.90;;;;;;4991013;28;20517;-66
2023/04/08 04:25:17;;;;;;;11.13;6.97;;;9.90;99.90;;;;;;4986593;28;20228;-66
2023/04/08 04:27:44;;;;;;;11.70;7.27;;;9.90;99.90;;;;;;4985818;28;20287;-67
2023/04/08 04:30:14;;;;;;;11.87;6.57;;;10.00;99.90;;;;;;4991752;28;20227;-66
2023/04/08 04:32:44;;;;;;;11.63;6.57;;;10.00;99.90;;;;;;4990883;28;20560;-66
2023/04/08 04:35:14;;;;;;;8.73;5.70;;;10.00;99.90;;;;;;4988778;28;20207;-66
2023/04/08 04:37:41;;;;;;;7.97;4.90;;;9.90;99.90;;;;;;4989623;28;20294;-65
2023/04/08 04:40:09;;;;;;;14.03;6.83;;;9.90;99.90;;;;;;4990605;28;20728;-66
2023/04/08 04:42:36;;;;;;;11.73;6.97;;;9.90;99.90;;;;;;4985843;28;20324;-66
2023/04/08 04:45:03;;;;;;;16.73;9.47;;;9.90;99.90;;;;;;4989220;28;20736;-66
2023/04/08 04:47:31;;;;;;;22.63;10.43;;;9.90;99.90;;;;;;4990832;28;20295;-67
2023/04/08 04:49:58;;;;;;;18.60;9.93;;;9.90;99.90;;;;;;4988437;28;20237;-66
2023/04/08 04:52:26;;;;;;;21.43;10.77;;;10.00;99.90;;;;;;4990861;28;20259;-65
2023/04/08 04:54:54;;;;;;;20.00;10.13;;;9.90;99.90;;;;;;4989393;28;20285;-66
2023/04/08 04:57:21;;;;;;;18.17;9.10;;;10.00;99.90;;;;;;4987789;28;20227;-66
2023/04/08 04:59:48;;;;;;;14.37;7.67;;;10.00;99.90;;;;;;4991397;28;20197;-66
2023/04/08 05:02:15;;;;;;;17.93;9.13;;;10.00;99.90;;;;;;4990495;28;20220;-66
2023/04/08 05:04:42;;;;;;;14.20;7.97;;;10.00;99.90;;;;;;4985028;28;20255;-66
2023/04/08 05:07:09;;;;;;;13.83;7.77;;;10.00;99.90;;;;;;4990492;28;20257;-66
2023/04/08 05:09:37;;;;;;;10.50;6.80;;;10.00;99.90;;;;;;4990830;28;20207;-67
2023/04/08 05:12:05;;;;;;;24.80;12.60;;;10.00;99.90;;;;;;4985567;28;20677;-66
2023/04/08 05:14:32;;;;;;;18.30;9.57;;;10.00;99.90;;;;;;4989144;28;20205;-65
2023/04/08 05:16:59;;;;;;;18.43;10.13;;;10.00;99.90;;;;;;4990252;28;20265;-66
2023/04/08 05:19:27;;;;;;;15.40;9.00;;;10.00;99.90;;;;;;4986703;28;20199;-66
2023/04/08 05:21:54;;;;;;;16.20;8.60;;;10.00;99.90;;;;;;4990790;28;20203;-66
2023/04/08 05:24:21;;;;;;;19.20;9.10;;;10.00;99.90;;;;;;4989284;28;20596;-66
2023/04/08 05:26:52;;;;;;;12.43;7.53;;;10.00;99.90;;;;;;5000351;28;20204;-66
2023/04/08 05:29:20;;;;;;;16.20;8.80;;;10.00;99.90;;;;;;4988441;28;20544;-66
2023/04/08 05:31:47;;;;;;;12.97;7.97;;;9.90;99.90;;;;;;4988844;28;20202;-66
2023/04/08 05:34:21;;;;;;;17.03;8.63;;;9.90;99.90;;;;;;4988382;28;20291;-66
2023/04/08 05:36:51;;;;;;;20.23;10.43;;;9.90;99.90;;;;;;4990141;28;20215;-66
2023/04/08 05:39:20;;;;;;;14.57;8.53;;;9.90;99.90;;;;;;4986843;28;20652;-67
2023/04/08 05:41:49;;;;;;;15.33;9.00;;;9.90;99.90;;;;;;4985932;28;20191;-66
2023/04/08 05:44:16;;;;;;;14.23;8.47;;;10.00;99.90;;;;;;4990586;28;20218;-66
2023/04/08 05:46:43;;;;;;;16.83;9.27;;;10.00;99.90;;;;;;4986607;28;20210;-66
2023/04/08 05:49:10;;;;;;;16.50;9.23;;;10.00;99.90;;;;;;4990610;28;20199;-66
2023/04/08 05:51:38;;;;;;;18.87;9.60;;;9.90;99.90;;;;;;4990747;28;20685;-65
2023/04/08 05:54:05;;;;;;;17.30;9.37;;;9.90;99.90;;;;;;4991013;28;20468;-66
2023/04/08 05:56:32;;;;;;;14.30;8.33;;;10.00;99.90;;;;;;4993861;28;20211;-66
2023/04/08 05:59:01;;;;;;;11.70;7.87;;;10.00;99.90;;;;;;5009426;28;20275;-65
2023/04/08 06:01:28;;;;;;;15.90;9.40;;;10.00;99.90;;;;;;4990448;28;20282;-65
2023/04/08 06:03:55;;;;;;;14.43;8.57;;;9.90;99.90;;;;;;4993463;28;20725;-66
2023/04/08 06:06:22;;;;;;;14.33;8.27;;;10.00;99.90;;;;;;4993808;28;20231;-66
2023/04/08 06:08:49;;;;;;;11.03;7.37;;;10.00;99.90;;;;;;4990530;28;20200;-66
2023/04/08 06:11:16;;;;;;;12.60;7.80;;;10.00;99.90;;;;;;4994183;28;20307;-65
2023/04/08 06:13:43;;;;;;;13.67;7.80;;;10.10;99.90;;;;;;4993616;28;20278;-65
2023/04/08 06:16:13;;;;;;;15.20;8.80;;;10.00;99.90;;;;;;4990073;28;20745;-65
2023/04/08 06:18:41;;;;;;;12.80;7.83;;;10.00;99.90;;;;;;4993560;28;20547;-66
2023/04/08 06:21:08;;;;;;;17.77;9.73;;;10.00;99.90;;;;;;4993770;28;20653;-66
2023/04/08 06:23:35;;;;;;;14.87;8.33;;;10.00;99.90;;;;;;4990484;28;20214;-65
2023/04/08 06:26:02;;;;;;;14.27;7.30;;;10.10;99.90;;;;;;4989259;28;20199;-66
2023/04/08 06:28:30;;;;;;;12.63;7.47;;;10.00;99.90;;;;;;4993271;28;20199;-66
2023/04/08 06:30:57;;;;;;;11.70;7.00;;;10.00;99.90;;;;;;4990266;28;20196;-65
2023/04/08 06:33:26;;;;;;;11.50;6.67;;;10.00;99.90;;;;;;4994478;28;20193;-65
2023/04/08 06:36:02;;;;;;;11.60;6.57;;;10.00;99.90;;;;;;4993154;28;20573;-65
2023/04/08 06:38:29;;;;;;;17.53;9.10;;;10.10;99.90;;;;;;4990680;28;20198;-65
2023/04/08 06:40:56;;;;;;;12.63;7.30;;;10.10;99.90;;;;;;4991045;28;20259;-65
2023/04/08 06:43:23;;;;;;;21.13;10.00;;;10.10;99.90;;;;;;4994002;28;20299;-65
2023/04/08 06:45:50;;;;;;;13.63;8.40;;;10.20;99.90;;;;;;4985799;28;20640;-65
2023/04/08 06:48:22;;;;;;;13.93;7.63;;;10.20;99.90;;;;;;5003577;28;20251;-65
2023/04/08 06:50:50;;;;;;;11.03;6.60;;;10.20;99.90;;;;;;4989279;28;20234;-66
2023/04/08 06:53:17;;;;;;;13.20;7.47;;;10.20;99.90;;;;;;4984157;28;20277;-65
2023/04/08 06:55:44;;;;;;;11.83;6.20;;;10.30;99.90;;;;;;4990400;28;20227;-65
2023/04/08 06:58:11;;;;;;;9.20;6.23;;;10.30;99.90;;;;;;4989560;28;20575;-66
2023/04/08 07:00:39;;;;;;;9.57;5.73;;;10.30;99.90;;;;;;4991213;28;20725;-65
2023/04/08 07:03:06;;;;;;;11.63;6.47;;;10.40;99.90;;;;;;4992631;28;20326;-65
2023/04/08 07:05:35;;;;;;;23.13;11.10;;;10.40;99.90;;;;;;4989070;28;20346;-65
2023/04/08 07:08:04;;;;;;;14.60;8.83;;;10.40;99.90;;;;;;4991452;28;20199;-66
2023/04/08 07:10:31;;;;;;;18.83;9.73;;;10.40;99.90;;;;;;5004797;28;20648;-66
2023/04/08 07:12:58;;;;;;;26.00;12.10;;;10.40;99.90;;;;;;4984961;28;20910;-64
2023/04/08 07:15:25;;;;;;;30.73;13.70;;;10.50;99.90;;;;;;4989390;28;20203;-64
2023/04/08 07:17:55;;;;;;;28.83;15.40;;;10.50;99.90;;;;;;4986038;28;20224;-65
2023/04/08 07:20:22;;;;;;;31.97;13.77;;;10.40;99.90;;;;;;4992687;28;20219;-65
2023/04/08 07:22:50;;;;;;;17.47;11.10;;;10.40;99.90;;;;;;4989896;28;20196;-65
2023/04/08 07:25:18;;;;;;;26.00;13.77;;;10.30;99.90;;;;;;4988623;28;20191;-64
2023/04/08 07:27:45;;;;;;;23.97;11.93;;;10.40;99.90;;;;;;4992778;28;20200;-65
2023/04/08 07:30:12;;;;;;;27.03;13.67;;;10.40;99.90;;;;;;4993875;28;20227;-66
2023/04/08 07:32:39;;;;;;;28.13;14.33;;;10.40;99.90;;;;;;4986858;28;20203;-66
2023/04/08 07:35:07;;;;;;;27.77;14.50;;;10.40;99.90;;;;;;4990258;28;20675;-65
2023/04/08 07:37:34;;;;;;;28.17;13.90;;;10.40;99.90;;;;;;4990962;28;20209;-64
2023/04/08 07:40:02;;;;;;;29.80;13.73;;;10.40;99.90;;;;;;4988130;28;20281;-65
2023/04/08 07:42:32;;;;;;;28.77;13.67;;;10.40;99.90;;;;;;4991828;28;20294;-65
2023/04/08 07:44:59;;;;;;;22.30;12.37;;;10.40;99.90;;;;;;4990913;28;20230;-65
2023/04/08 07:47:26;;;;;;;25.60;12.90;;;10.40;99.90;;;;;;4990614;28;20211;-65
2023/04/08 07:49:53;;;;;;;30.30;14.47;;;10.50;99.90;;;;;;5007256;28;20211;-66
2023/04/08 07:52:21;;;;;;;29.60;13.97;;;10.50;99.90;;;;;;4988728;28;20295;-65
2023/04/08 07:54:48;;;;;;;23.37;12.80;;;10.50;99.90;;;;;;4991794;28;20198;-66
2023/04/08 07:57:15;;;;;;;14.37;9.20;;;10.50;99.90;;;;;;4992393;28;20212;-66
2023/04/08 07:59:43;;;;;;;16.77;8.77;;;10.60;99.90;;;;;;5005670;28;20198;-65
2023/04/08 08:02:10;;;;;;;20.63;10.50;;;10.60;99.90;;;;;;4989630;28;20248;-65
2023/04/08 08:04:37;;;;;;;19.90;11.10;;;10.70;99.90;;;;;;4992771;28;20188;-65
2023/04/08 08:07:04;;;;;;;19.20;10.27;;;10.70;99.90;;;;;;4990291;28;20211;-66
2023/04/08 08:09:31;;;;;;;18.93;11.30;;;10.80;99.90;;;;;;4989560;28;20251;-66
2023/04/08 08:12:01;;;;;;;18.80;10.13;;;10.80;99.90;;;;;;4991956;28;20203;-66
2023/04/08 08:14:28;;;;;;;18.27;9.67;;;10.80;99.90;;;;;;4987072;28;20231;-66
2023/04/08 08:16:56;;;;;;;13.97;9.00;;;10.90;99.90;;;;;;4992195;28;20677;-65
2023/04/08 08:19:23;;;;;;;15.13;9.37;;;11.00;99.90;;;;;;4992081;28;20215;-66
2023/04/08 08:21:51;;;;;;;14.57;9.10;;;11.10;99.90;;;;;;4989676;28;20199;-66
2023/04/08 08:24:18;;;;;;;21.23;11.90;;;11.20;99.90;;;;;;4991464;28;20231;-65
2023/04/08 08:26:47;;;;;;;22.93;10.33;;;11.30;99.90;;;;;;4991827;28;20203;-65
2023/04/08 08:29:15;;;;;;;16.90;9.97;;;11.40;99.90;;;;;;4988293;28;20281;-66
2023/04/08 08:31:42;;;;;;;21.20;11.40;;;11.50;99.90;;;;;;4992039;28;20213;-65
2023/04/08 08:34:10;;;;;;;13.47;8.53;;;11.60;99.90;;;;;;5007412;28;20614;-66
2023/04/08 08:36:38;;;;;;;15.60;8.90;;;11.70;99.90;;;;;;4988977;28;20214;-65
2023/04/08 08:39:05;;;;;;;12.10;7.37;;;12.40;99.90;;;;;;4990153;28;20337;-66
2023/04/08 08:41:35;;;;;;;17.73;8.77;;;12.00;99.90;;;;;;4991427;28;20206;-65
2023/04/08 08:44:06;;;;;;;15.03;8.37;;;12.20;99.90;;;;;;4986518;28;20197;-65
2023/04/08 08:46:34;;;;;;;12.47;7.30;;;12.20;99.90;;;;;;4991000;28;20508;-64
2023/04/08 08:49:01;;;;;;;14.53;9.73;;;12.30;99.90;;;;;;4992125;28;20566;-65
2023/04/08 08:51:31;;;;;;;16.77;8.73;;;12.40;99.90;;;;;;4987411;28;20583;-64
2023/04/08 08:54:01;;;;;;;18.43;11.13;;;12.40;99.90;;;;;;4990557;28;20291;-65
2023/04/08 08:56:28;;;;;;;18.20;11.10;;;12.50;99.90;;;;;;4990660;28;20203;-65
2023/04/08 08:58:56;;;;;;;18.10;9.37;;;12.50;99.90;;;;;;4989097;28;20631;-65
2023/04/08 09:01:34;;;;;;;15.20;9.63;;;12.60;99.90;;;;;;4991227;28;20549;-65
2023/04/08 09:04:12;;;;;;;15.30;8.97;;;12.80;99.90;;;;;;4989006;28;20227;-64
2023/04/08 09:06:41;;;;;;;11.97;7.80;;;12.90;99.90;;;;;;4991096;28;20560;-65
2023/04/08 09:09:11;;;;;;;14.33;9.70;;;13.10;99.90;;;;;;4991102;28;20315;-65
2023/04/08 09:11:40;;;;;;;14.50;8.60;;;13.30;99.90;;;;;;4987926;28;20647;-65
2023/04/08 09:14:18;;;;;;;17.03;8.93;;;13.50;99.90;;;;;;4991502;28;20274;-65
2023/04/08 09:16:45;;;;;;;18.00;10.90;;;13.70;99.90;;;;;;4991019;28;20688;-65
2023/04/08 09:19:12;;;;;;;18.60;10.73;;;13.90;99.90;;;;;;4988920;28;20248;-65
2023/04/08 09:21:42;;;;;;;17.97;10.67;;;14.70;99.90;;;;;;5006650;28;20242;-65
2023/04/08 09:24:12;;;;;;;13.53;8.37;;;14.20;99.90;;;;;;4988642;28;20687;-65
2023/04/08 09:26:40;;;;;;;16.27;9.47;;;14.40;99.90;;;;;;4985897;28;20201;-65
2023/04/08 09:29:09;;;;;;;12.77;8.07;;;14.50;99.90;;;;;;4988447;28;20240;-65
2023/04/08 09:31:40;;;;;;;11.27;7.53;;;14.70;99.90;;;;;;4990077;28;20193;-66
2023/04/08 09:34:11;;;;;;;15.07;9.50;;;14.90;99.90;;;;;;4989614;28;20197;-64
2023/04/08 09:36:38;;;;;;;13.23;8.77;;;15.00;99.90;;;;;;4990025;28;20227;-65
2023/04/08 09:39:11;;;;;;;17.97;9.70;;;15.10;99.90;;;;;;4988372;28;20214;-65
2023/04/08 09:41:39;;;;;;;10.87;7.17;;;15.10;99.90;;;;;;4989281;28;20732;-65
2023/04/08 09:44:08;;;;;;;9.67;7.00;;;15.20;99.90;;;;;;4991389;28;20206;-66
2023/04/08 09:46:40;;;;;;;9.87;6.50;;;15.30;99.90;;;;;;4989476;28;20670;-65
2023/04/08 09:49:12;;;;;;;9.23;6.37;;;15.50;99.90;;;;;;4989166;28;20235;-65
2023/04/08 09:51:45;;;;;;;6.43;5.00;;;15.50;99.90;;;;;;4989452;28;20579;-66
2023/04/08 09:54:18;;;;;;;10.00;5.90;;;15.60;99.90;;;;;;4986077;28;20262;-65
2023/04/08 09:57:03;;;;;;;8.37;5.83;;;15.60;99.90;;;;;;4983448;28;20745;-65
2023/04/08 09:59:33;;;;;;;5.93;4.83;;;15.60;99.90;;;;;;4989949;28;20223;-65
2023/04/08 10:02:08;;;;;;;9.23;6.50;;;15.70;99.90;;;;;;5002778;28;20203;-66
2023/04/08 10:04:39;;;;;;;10.57;6.40;;;16.60;99.90;;;;;;4990564;28;20282;-64
2023/04/08 10:07:08;;;;;;;12.07;6.17;;;16.00;99.10;;;;;;4990185;28;20290;-65
2023/04/08 10:09:40;;;;;;;8.33;5.93;;;16.00;98.90;;;;;;4987014;28;20639;-65
2023/04/08 10:12:07;;;;;;;12.10;8.13;;;16.00;99.10;;;;;;4988900;28;20211;-65
2023/04/08 10:14:35;;;;;;;10.03;6.67;;;16.10;98.30;;;;;;5005872;28;20254;-64
2023/04/08 10:17:25;;;;;;;13.03;7.73;;;16.10;98.10;;;;;;4987332;28;20718;-66
2023/04/08 10:19:54;;;;;;;7.87;5.23;;;16.10;97.70;;;;;;4991080;28;20250;-65
2023/04/08 10:22:47;;;;;;;6.73;4.10;;;16.20;97.80;;;;;;4990451;28;20211;-66
2023/04/08 10:25:33;;;;;;;4.37;3.87;;;16.30;98.10;;;;;;4987191;28;20290;-65
2023/04/08 10:28:02;;;;;;;12.43;7.70;;;16.40;97.80;;;;;;4990442;28;20266;-65
2023/04/08 10:30:43;;;;;;;10.53;6.87;;;16.60;96.90;;;;;;4987996;28;20254;-65
2023/04/08 10:33:12;;;;;;;8.40;5.70;;;16.60;96.70;;;;;;4989633;28;20211;-65
2023/04/08 10:35:45;;;;;;;5.93;5.03;;;16.70;96.70;;;;;;4986455;28;20200;-65
2023/04/08 10:38:13;;;;;;;5.33;4.57;;;16.80;96.40;;;;;;4989767;28;20267;-66
2023/04/08 10:40:43;;;;;;;6.57;4.90;;;16.90;96.10;;;;;;4991535;28;20223;-64
2023/04/08 10:43:11;;;;;;;4.93;4.43;;;16.90;95.70;;;;;;4994102;28;20197;-65
2023/04/08 10:45:38;;;;;;;4.60;3.67;;;17.00;95.70;;;;;;4991482;28;20259;-65
2023/04/08 10:48:17;;;;;;;4.77;3.80;;;17.10;95.80;;;;;;4993873;28;20675;-66
2023/04/08 10:51:03;;;;;;;4.70;4.17;;;17.30;95.60;;;;;;4991910;28;20199;-66
2023/04/08 10:53:32;;;;;;;4.63;4.20;;;17.50;95.40;;;;;;4992610;28;20224;-65
2023/04/08 10:56:11;;;;;;;6.17;4.37;;;17.70;95.20;;;;;;4991947;28;20311;-66
2023/04/08 10:58:48;;;;;;;8.00;6.03;;;17.80;94.90;;;;;;4990225;28;20233;-65
2023/04/08 11:01:16;;;;;;;8.00;5.80;;;17.80;93.80;;;;;;4988099;28;20208;-65
2023/04/08 11:03:43;;;;;;;9.37;5.83;;;17.80;92.60;;;;;;5006150;28;20288;-64
2023/04/08 11:06:10;;;;;;;8.13;5.80;;;17.80;92.20;;;;;;5005448;28;20210;-66
2023/04/08 11:08:38;;;;;;;7.27;5.73;;;17.80;91.80;;;;;;5008691;28;20208;-65
2023/04/08 11:11:07;;;;;;;6.10;4.63;;;17.90;90.90;;;;;;4993103;28;20201;-65
2023/04/08 11:13:37;;;;;;;8.75;5.45;;;17.90;90.90;;;;;;4990948;28;20197;-65
2023/04/08 11:16:06;;;;;;;5.50;4.78;;;18.00;90.00;;;;;;5008696;28;20214;-65
2023/04/08 11:18:34;;;;;;;4.93;4.17;;;18.10;90.30;;;;;;4993599;28;20627;-64
2023/04/08 11:21:09;;;;;;;4.68;3.40;;;18.30;90.30;;;;;;4990640;28;20267;-66
2023/04/08 11:23:36;;;;;;;3.72;3.38;;;18.50;90.30;;;;;;4991004;28;20210;-65
2023/04/08 11:26:06;;;;;;;2.70;2.50;;;18.70;90.20;;;;;;4991460;28;20217;-65
2023/04/08 11:28:35;;;;;;;3.28;2.97;;;18.90;90.10;;;;;;4991427;28;20200;-65
2023/04/08 11:31:04;;;;;;;8.17;5.97;;;18.90;89.80;;;;;;4993438;28;20269;-65
2023/04/08 11:33:35;;;;;;;8.45;6.32;;;18.90;87.10;;;;;;4988067;28;20291;-66
2023/04/08 11:36:03;;;;;;;6.05;4.63;;;18.70;84.60;;;;;;4991510;28;20211;-66
2023/04/08 11:38:30;;;;;;;4.10;3.70;;;18.60;85.00;;;;;;4993139;28;20221;-65
2023/04/08 11:40:59;;;;;;;4.85;4.38;;;18.60;86.00;;;;;;5002997;28;20762;-66
2023/04/08 11:43:28;;;;;;;4.32;3.53;;;18.60;85.30;;;;;;4987530;28;20200;-65
2023/04/08 11:45:55;;;;;;;6.63;4.85;;;18.60;85.70;;;;;;4992895;28;20289;-65
2023/04/08 11:48:22;;;;;;;10.05;6.65;;;18.60;86.30;;;;;;4984781;28;20193;-65
2023/04/08 11:51:03;;;;;;;8.50;5.63;;;18.60;87.50;;;;;;4983549;28;20591;-65
2023/04/08 11:53:30;;;;;;;6.47;5.40;;;18.60;88.40;;;;;;4980616;28;20210;-66
2023/04/08 11:55:57;;;;;;;11.40;8.02;;;18.50;89.10;;;;;;4987455;28;20624;-64
2023/04/08 11:58:24;;;;;;;12.60;8.05;;;18.50;88.80;;;;;;5001790;28;20619;-65
2023/04/08 12:00:53;;;;;;;8.48;5.93;;;18.50;87.90;;;;;;4988073;28;20270;-65
2023/04/08 12:03:20;;;;;;;10.90;7.20;;;18.40;88.40;;;;;;4983644;28;20236;-65
2023/04/08 12:05:48;;;;;;;10.88;6.68;;;18.40;88.60;;;;;;4992313;28;20228;-64
2023/04/08 12:08:15;;;;;;;7.95;5.20;;;18.40;88.70;;;;;;4994344;28;20227;-65
2023/04/08 12:10:42;;;;;;;11.60;7.25;;;18.50;89.20;;;;;;4988275;28;20250;-65
2023/04/08 12:13:09;;;;;;;11.27;7.72;;;18.50;87.90;;;;;;5007655;28;20576;-65
2023/04/08 12:15:36;;;;;;;9.63;7.07;;;18.60;86.90;;;;;;4992345;28;20223;-65
2023/04/08 12:18:05;;;;;;;10.20;7.07;;;18.60;86.70;;;;;;4990153;28;20215;-65
2023/04/08 12:20:32;;;;;;;9.32;6.20;;;18.60;86.60;;;;;;4992894;28;20196;-64
2023/04/08 12:23:03;;;;;;;5.22;4.55;;;18.70;85.40;;;;;;4989461;28;20204;-65
2023/04/08 12:25:30;;;;;;;6.75;4.65;;;18.60;85.60;;;;;;4990417;28;20358;-65
2023/04/08 12:27:57;;;;;;;7.05;5.70;;;18.70;86.20;;;;;;4991459;28;20185;-66
2023/04/08 12:30:24;;;;;;;13.48;7.07;;;18.80;86.20;;;;;;4988335;28;20211;-66
2023/04/08 12:32:53;;;;;;;10.25;7.10;;;18.80;85.40;;;;;;4992043;28;20200;-66
2023/04/08 12:35:22;;;;;;;15.27;8.30;;;18.70;85.00;;;;;;4992737;28;20196;-65
2023/04/08 12:37:49;;;;;;;14.32;8.75;;;18.70;84.90;;;;;;4987629;28;20216;-64
2023/04/08 12:40:18;;;;;;;10.63;7.85;;;18.60;84.50;;;;;;4991970;28;20270;-65
2023/04/08 12:42:45;;;;;;;12.68;8.32;;;18.60;84.50;;;;;;4991174;28;20200;-65
2023/04/08 12:45:14;;;;;;;8.30;6.15;;;18.60;84.50;;;;;;4989338;28;20634;-65
2023/04/08 12:47:42;;;;;;;8.10;5.90;;;18.70;85.10;;;;;;4991627;28;20195;-64
2023/04/08 12:50:10;;;;;;;15.13;7.82;;;18.70;85.60;;;;;;4991680;28;20203;-66